CheckWX is a tool to help pilots better visualize weather data.  It is not intended as a substitute for an official pre-flight weather briefing.

01:03:54 UTC

KLOT METAR
Lewis University Airport
Chicago/Romeoville, Illinois, USA
Current

29 mins ago

KLOT 200035Z AUTO 06003KT 10SM SCT055 BKN070 27/23 A2999 RMK AO2 LTG DSNT SW T02650228
Observed
Aug-20 @ 00:35 UTC
Wind
  • 060° at 3 KTS
Visibility
10 SM
Flight Rules
VFR
Cloud Levels
  • Scattered at 5,500' AGL
  • Broken at 7,000' AGL
Temperature
27°C / 81°F
Dewpoint
23°C / 73°F
Heat Index
30°C / 86°F
Humidity
79%
Altimeter
29.99" Hg
Pressure
1015.62 hPa
Previous

1 hour ago

KLOT 192355Z AUTO 00000KT 10SM CLR 28/23 A2999 RMK AO2 T02770226 10306 20276
Observed
Aug-19 @ 23:55 UTC
Visibility
10 SM
Flight Rules
VFR
Cloud Levels
  • Clear skies
Temperature
28°C / 82°F
Dewpoint
23°C / 73°F
Heat Index
31°C / 87°F
Humidity
74%
Altimeter
29.99" Hg
Pressure
1015.62 hPa
Previous

1 hour ago

KLOT 192335Z AUTO 19003KT 10SM SCT050 SCT070 28/23 A2999 RMK AO2 T02800227
Observed
Aug-19 @ 23:35 UTC
Wind
  • 190° at 3 KTS
Visibility
10 SM
Flight Rules
VFR
Cloud Levels
  • Scattered at 5,000' AGL
  • Scattered at 7,000' AGL
Temperature
28°C / 82°F
Dewpoint
23°C / 73°F
Heat Index
31°C / 87°F
Humidity
74%
Altimeter
29.99" Hg
Pressure
1015.62 hPa